Startpagina
METAR-TAF:

METAR-TAF

Vliegvelden :

Aeroporto da Madeira

Funchal, Madeira, Portugal

breedte: 32-41-52N, lengte: 016-46-28W, hoogte: 59 m

Actueel weer

Dit bericht is 19 minuten geleden gemaakt, om 19:30 UTC
Wind 5 kt uit het noordoosten
Temperatuur 21°C
Vochtigheid 73%
Druk 1016 hPa
Zicht 10 km of meer
Verspreide wolken op 1500 ft

METAR: LPMA 231930Z 04005KT 9999 SCT015 21/16 Q1016

Tijdstip: 20:49 (19:49 UTC)

Verwachting

Dit bericht is 2 uur en het 49 minuten geleden gemaakt, om 17:00 UTC
Verwachting geldig van 23 om 18 UTC tot 24 om 18 UTC
Wind 5 kt uit variabele richting
Zicht 10 km of meer
Verspreide wolken op 1500 ft
Tijdelijke
van 23 om 18 UTC tot 24 om 18 UTC
Gebroken wolken op 1500 ft
Wijzigt naar
van 24 om 11 UTC tot 24 om 13 UTC
Wind 10 kt uit het zuidwesten
Wijzigt naar
van 24 om 16 UTC tot 24 om 18 UTC
Wind 5 kt uit variabele richting

TAF: LPMA 231700Z 2318/2418 VRB05KT 9999 SCT015 TEMPO 2318/2418 BKN015 BECMG 2411/2413 22010KT BECMG 2416/2418 VRB05KT

Waarnemingen en weersverwachtingen van meer dan 4000 vliegvelden (METAR en TAF).

De beschikbare stations zijn de gele en rode punten op de kaart.

Ga met uw muis naar het station om de naam te zien.

Klik dan om waarnemingen en weersverwachtingen te zien.

kaart wijzigen: klik op de groene knoppen met een zwart kruis om in te zoomen, op de groene knop met een streepje om uit te zoomen of op de groene pijlen voor aangrenzende kaarten.


METAR-TAF: